createdAt,value
2018-08-13T00:00:49.836Z,2.5
2018-08-13T00:02:49.894Z,2.5
2018-08-13T00:04:50.244Z,2.4
2018-08-13T00:06:49.526Z,2.3
2018-08-13T00:08:49.566Z,2.5
2018-08-13T00:10:49.712Z,2.4
2018-08-13T00:12:49.683Z,2.4
2018-08-13T00:14:49.873Z,2.4
2018-08-13T00:16:50.211Z,2.4
2018-08-13T00:18:50.398Z,2.4
2018-08-13T00:20:50.334Z,2.4
2018-08-13T00:22:50.378Z,2.4
2018-08-13T00:24:50.503Z,2.5
2018-08-13T00:26:49.813Z,2.5
2018-08-13T00:28:49.802Z,2.5
2018-08-13T00:30:49.829Z,2.5
2018-08-13T00:32:49.876Z,2.5
2018-08-13T00:34:50.248Z,2.1
2018-08-13T00:36:49.593Z,2.3
2018-08-13T00:38:49.618Z,2.3
2018-08-13T00:40:49.886Z,2.3
2018-08-13T00:42:49.950Z,2.7
2018-08-13T00:44:50.038Z,2.3
2018-08-13T00:46:50.258Z,2.3
2018-08-13T00:48:50.299Z,2.4
2018-08-13T00:50:50.421Z,2.4
2018-08-13T00:52:49.524Z,2.5
2018-08-13T00:54:49.544Z,2.5
2018-08-13T00:56:50.029Z,2.2
2018-08-13T00:58:50.080Z,2.3
2018-08-13T01:00:50.043Z,2.3
2018-08-13T01:02:50.147Z,2.3
2018-08-13T01:04:49.619Z,2.4
2018-08-13T01:06:49.957Z,2.4
2018-08-13T01:08:49.980Z,2.4
2018-08-13T01:10:49.986Z,2.4
2018-08-13T01:12:50.127Z,2.1
2018-08-13T01:14:50.155Z,2.5
2018-08-13T01:16:50.360Z,2.4
2018-08-13T01:18:50.436Z,2.4
2018-08-13T01:20:50.491Z,2.5
2018-08-13T01:22:49.632Z,2.2
2018-08-13T01:24:49.614Z,2.5
2018-08-13T01:26:49.868Z,2.3
2018-08-13T01:28:49.941Z,2.3
2018-08-13T01:30:49.958Z,2.5
2018-08-13T01:32:50.052Z,2.5
2018-08-13T01:34:49.598Z,2.7
2018-08-13T01:36:49.946Z,2.3
2018-08-13T01:38:50.022Z,2.3
2018-08-13T01:40:50.309Z,2.5
2018-08-13T01:42:50.378Z,2.5
2018-08-13T01:44:49.522Z,2.5
2018-08-13T01:46:49.798Z,2.6
2018-08-13T01:48:49.784Z,2.6
2018-08-13T01:50:50.077Z,2.5
2018-08-13T01:52:50.194Z,2.7
2018-08-13T01:54:50.192Z,2.8
2018-08-13T01:56:50.468Z,2.4
2018-08-13T01:58:49.587Z,2.4
2018-08-13T02:00:49.860Z,2.5
2018-08-13T02:02:49.925Z,2.3
2018-08-13T02:04:50.259Z,2.6
2018-08-13T02:06:49.591Z,2.7
2018-08-13T02:08:50.487Z,2.7
2018-08-13T02:10:49.543Z,2.5
2018-08-13T02:12:49.679Z,2.5
2018-08-13T02:14:49.670Z,2.7
2018-08-13T02:16:50.176Z,2.7
2018-08-13T02:18:50.266Z,2.4
2018-08-13T02:20:50.298Z,2.6
2018-08-13T02:22:50.289Z,2.4
2018-08-13T02:24:50.403Z,2.4
2018-08-13T02:26:49.814Z,2.6
2018-08-13T02:28:49.825Z,2.6
2018-08-13T02:30:49.851Z,2.8
2018-08-13T02:32:49.843Z,2.8
2018-08-13T02:34:50.241Z,2.5
2018-08-13T02:36:49.780Z,2.5
2018-08-13T02:38:49.768Z,2.5
2018-08-13T02:40:49.805Z,2.5
2018-08-13T02:42:49.857Z,2.6
2018-08-13T02:44:50.017Z,2.5
2018-08-13T02:46:50.323Z,2.5
2018-08-13T02:48:50.381Z,2.6
2018-08-13T02:50:49.536Z,2.5
2018-08-13T02:52:49.788Z,2.6
2018-08-13T02:54:49.813Z,2.6
2018-08-13T02:56:50.050Z,2.7
2018-08-13T02:58:50.144Z,2.7
2018-08-13T03:00:50.220Z,2.8
2018-08-13T03:02:50.356Z,2.5
2018-08-13T03:04:50.201Z,2.5
2018-08-13T03:06:49.821Z,2.8
2018-08-13T03:08:50.043Z,2.7
2018-08-13T03:10:50.086Z,2.7
2018-08-13T03:12:50.068Z,2.9
2018-08-13T03:14:50.122Z,2.9
2018-08-13T03:16:50.399Z,2.9
2018-08-13T03:18:50.466Z,2.9
2018-08-13T03:20:49.552Z,2.7
2018-08-13T03:22:49.568Z,2.7
2018-08-13T03:24:49.835Z,2.7
2018-08-13T03:26:50.082Z,2.8
2018-08-13T03:28:50.045Z,2.8
2018-08-13T03:30:50.121Z,2.9
2018-08-13T03:32:50.205Z,2.8
2018-08-13T03:34:49.674Z,2.8
2018-08-13T03:36:49.759Z,3.0
2018-08-13T03:38:49.781Z,2.6
2018-08-13T03:40:49.914Z,3.1
2018-08-13T03:42:49.930Z,3.0
2018-08-13T03:44:49.919Z,3.0
2018-08-13T03:46:50.219Z,3.0
2018-08-13T03:48:50.295Z,2.8
2018-08-13T03:50:50.358Z,3.2
2018-08-13T03:52:50.306Z,3.2
2018-08-13T03:54:50.346Z,3.0
2018-08-13T03:56:49.660Z,3.1
2018-08-13T03:58:49.669Z,3.1
2018-08-13T04:00:49.628Z,3.1
2018-08-13T04:02:49.662Z,3.1
2018-08-13T04:04:50.121Z,3.3
2018-08-13T04:06:50.429Z,3.1
2018-08-13T04:08:50.349Z,3.2
2018-08-13T04:10:50.416Z,3.4
2018-08-13T04:12:49.657Z,3.4
2018-08-13T04:14:49.788Z,3.1
2018-08-13T04:16:50.066Z,3.4
2018-08-13T04:18:50.261Z,3.4
2018-08-13T04:20:50.501Z,3.7
2018-08-13T04:22:50.481Z,3.7
2018-08-13T04:24:50.538Z,3.7
2018-08-13T04:26:49.606Z,3.5
2018-08-13T04:28:49.742Z,4.1
2018-08-13T04:30:49.888Z,3.4
2018-08-13T04:32:50.151Z,3.4
2018-08-13T04:34:50.122Z,3.2
2018-08-13T04:36:50.433Z,3.4
2018-08-13T04:38:49.564Z,3.4
2018-08-13T04:40:50.522Z,3.7
2018-08-13T04:42:49.610Z,3.7
2018-08-13T04:44:49.764Z,3.5
2018-08-13T04:46:50.194Z,3.5
2018-08-13T04:48:50.159Z,3.9
2018-08-13T04:50:50.221Z,3.9
2018-08-13T04:52:50.351Z,3.7
2018-08-13T04:54:50.424Z,3.9
2018-08-13T04:56:49.618Z,3.5
2018-08-13T04:58:49.736Z,3.3
2018-08-13T05:00:50.115Z,3.3
2018-08-13T05:02:50.180Z,3.3
2018-08-13T05:04:50.502Z,3.5
2018-08-13T05:06:49.700Z,7.7
2018-08-13T05:08:49.994Z,7.7
2018-08-13T05:10:50.116Z,3.7
2018-08-13T05:12:50.109Z,3.8
2018-08-13T05:14:50.184Z,5.0
2018-08-13T05:16:50.411Z,4.4
2018-08-13T05:18:50.396Z,4.4
2018-08-13T05:20:50.443Z,17.6
2018-08-13T05:22:49.586Z,6.2
2018-08-13T05:24:49.870Z,6.1
2018-08-13T05:26:50.032Z,6.1
2018-08-13T05:28:50.039Z,4.2
2018-08-13T05:30:50.218Z,4.2
2018-08-13T05:32:50.276Z,16.2
2018-08-13T05:34:49.638Z,6.7
2018-08-13T05:36:50.410Z,3.5
2018-08-13T05:38:50.495Z,3.8
2018-08-13T05:40:49.606Z,3.8
2018-08-13T05:42:49.608Z,4.1
2018-08-13T05:44:49.625Z,3.5
2018-08-13T05:46:50.047Z,3.3
2018-08-13T05:48:50.265Z,3.3
2018-08-13T05:50:50.230Z,3.6
2018-08-13T05:52:50.302Z,3.3
2018-08-13T05:54:49.700Z,3.2
2018-08-13T05:56:50.050Z,3.6
2018-08-13T05:58:49.979Z,3.6
2018-08-13T06:00:50.081Z,3.3
2018-08-13T06:02:50.185Z,3.0
2018-08-13T06:04:49.700Z,3.2
2018-08-13T06:06:49.981Z,3.2
2018-08-13T06:08:49.896Z,2.9
2018-08-13T06:10:50.026Z,2.9
2018-08-13T06:12:50.201Z,2.9
2018-08-13T06:14:50.226Z,3.2
2018-08-13T06:16:50.521Z,3.1
2018-08-13T06:18:49.577Z,3.1
2018-08-13T06:20:49.896Z,3.1
2018-08-13T06:22:49.942Z,3.1
2018-08-13T06:24:50.006Z,3.1
2018-08-13T06:26:49.526Z,3.1
2018-08-13T06:28:49.723Z,3.2
2018-08-13T06:30:49.825Z,3.2
2018-08-13T06:32:49.835Z,3.2
2018-08-13T06:34:50.154Z,3.2
2018-08-13T06:36:50.481Z,3.2
2018-08-13T06:38:49.668Z,4.0
2018-08-13T06:40:49.701Z,2.9
2018-08-13T06:42:49.725Z,3.0
2018-08-13T06:44:49.903Z,2.8
2018-08-13T06:46:50.034Z,2.8
2018-08-13T06:48:50.055Z,3.0
2018-08-13T06:50:50.261Z,2.9
2018-08-13T06:52:50.443Z,2.9
2018-08-13T06:54:50.420Z,3.1
2018-08-13T06:56:49.705Z,3.1
2018-08-13T06:58:49.955Z,2.9
2018-08-13T07:00:50.115Z,3.0
2018-08-13T07:02:50.475Z,3.0
2018-08-13T07:04:49.957Z,3.0
2018-08-13T07:06:50.239Z,3.0
2018-08-13T07:08:50.335Z,2.8
2018-08-13T07:10:50.408Z,3.1
2018-08-13T07:12:50.435Z,3.1
2018-08-13T07:14:49.530Z,2.9
2018-08-13T07:16:49.783Z,3.0
2018-08-13T07:18:49.833Z,3.1
2018-08-13T07:20:49.880Z,3.5
2018-08-13T07:22:50.020Z,3.0
2018-08-13T07:24:50.123Z,2.7
2018-08-13T07:26:50.441Z,2.7
2018-08-13T07:28:50.369Z,3.1
2018-08-13T07:30:50.524Z,3.1
2018-08-13T07:32:49.668Z,2.9
2018-08-13T07:34:50.142Z,2.9
2018-08-13T07:36:50.416Z,3.2
2018-08-13T07:38:50.558Z,3.2
2018-08-13T07:40:49.878Z,3.2
2018-08-13T07:42:49.976Z,3.8
2018-08-13T07:44:50.028Z,3.8
2018-08-13T07:46:50.125Z,3.8
2018-08-13T07:48:50.314Z,2.9
2018-08-13T07:50:50.395Z,2.9
2018-08-13T07:52:50.522Z,2.9
2018-08-13T07:54:49.633Z,2.9
2018-08-13T07:56:49.785Z,2.7
2018-08-13T07:58:49.849Z,2.8
2018-08-13T08:00:50.072Z,2.8
2018-08-13T08:02:50.090Z,2.6
2018-08-13T08:04:50.467Z,2.6
2018-08-13T08:06:49.931Z,2.8
2018-08-13T08:08:50.046Z,2.5
2018-08-13T08:10:50.182Z,2.5
2018-08-13T08:12:50.172Z,2.6
2018-08-13T08:14:50.651Z,2.6
2018-08-13T08:16:50.287Z,2.7
2018-08-13T08:18:50.346Z,2.4
2018-08-13T08:20:50.337Z,2.4
2018-08-13T08:22:50.412Z,2.6
2018-08-13T08:24:50.444Z,2.6
2018-08-13T08:26:49.706Z,2.5
2018-08-13T08:28:49.744Z,2.5
2018-08-13T08:30:49.879Z,2.5
2018-08-13T08:32:49.937Z,2.7
2018-08-13T08:34:50.552Z,2.3
2018-08-13T08:36:50.118Z,2.6
2018-08-13T08:38:50.219Z,2.4
2018-08-13T08:40:50.449Z,2.7
2018-08-13T08:42:50.023Z,2.7
2018-08-13T08:44:50.121Z,2.7
2018-08-13T08:46:50.409Z,2.7
2018-08-13T08:48:50.524Z,2.6
2018-08-13T08:50:49.642Z,2.8
2018-08-13T08:52:49.795Z,2.8
2018-08-13T08:54:49.759Z,2.7
2018-08-13T08:56:50.141Z,2.8
2018-08-13T08:58:50.294Z,2.8
2018-08-13T09:00:50.581Z,2.4
2018-08-13T09:02:49.701Z,2.4
2018-08-13T09:04:50.201Z,3.3
2018-08-13T09:06:50.358Z,2.8
2018-08-13T09:08:50.396Z,3.3
2018-08-13T09:10:49.574Z,3.3
2018-08-13T09:12:49.712Z,2.8
2018-08-13T09:14:49.804Z,2.2
2018-08-13T09:16:49.981Z,2.1
2018-08-13T09:18:50.379Z,2.1
2018-08-13T09:20:49.698Z,2.2
2018-08-13T09:22:50.222Z,2.4
2018-08-13T09:24:49.816Z,2.1
2018-08-13T09:26:49.853Z,2.1
2018-08-13T09:28:49.922Z,2.1
2018-08-13T09:30:50.127Z,1.8
2018-08-13T09:32:49.973Z,1.9
2018-08-13T09:34:50.371Z,2.0
2018-08-13T09:36:50.252Z,2.0
2018-08-13T09:38:50.267Z,2.3
2018-08-13T09:40:50.445Z,2.3
2018-08-13T09:42:49.602Z,2.8
2018-08-13T09:44:49.682Z,2.1
2018-08-13T09:46:49.906Z,2.1
2018-08-13T09:48:49.990Z,2.2
2018-08-13T09:50:50.166Z,2.2
2018-08-13T09:52:50.242Z,2.3
2018-08-13T09:54:50.259Z,2.6
2018-08-13T09:56:50.486Z,2.5
2018-08-13T09:58:49.835Z,2.5
2018-08-13T10:00:49.934Z,2.4
2018-08-13T10:02:49.906Z,2.5
2018-08-13T10:04:50.392Z,2.5
2018-08-13T10:06:49.676Z,3.4
2018-08-13T10:08:49.955Z,3.4
2018-08-13T10:10:50.186Z,2.3
2018-08-13T10:12:49.622Z,2.5
2018-08-13T10:14:49.629Z,2.8
2018-08-13T10:16:50.146Z,2.8
2018-08-13T10:18:50.441Z,2.4
2018-08-13T10:20:49.757Z,2.2
2018-08-13T10:22:49.731Z,2.5
2018-08-13T10:24:49.719Z,2.5
2018-08-13T10:26:50.105Z,2.6
2018-08-13T10:28:50.175Z,2.5
2018-08-13T10:30:50.219Z,2.5
2018-08-13T10:32:50.223Z,2.7
2018-08-13T10:34:49.655Z,2.8
2018-08-13T10:36:50.060Z,2.8
2018-08-13T10:38:50.073Z,2.4
2018-08-13T10:40:50.008Z,2.6
2018-08-13T10:42:50.030Z,2.7
2018-08-13T10:44:50.247Z,2.7
2018-08-13T10:46:49.841Z,2.1
2018-08-13T10:48:49.881Z,2.2
2018-08-13T10:50:49.975Z,2.2
2018-08-13T10:52:50.099Z,2.4
2018-08-13T10:54:50.025Z,2.4
2018-08-13T10:56:50.371Z,2.4
2018-08-13T10:58:50.488Z,2.2
2018-08-13T11:00:49.668Z,2.4
2018-08-13T11:02:49.775Z,2.4
2018-08-13T11:04:49.567Z,2.9
2018-08-13T11:06:49.877Z,2.2
2018-08-13T11:08:49.937Z,2.4
2018-08-13T11:10:49.903Z,2.7
2018-08-13T11:12:49.880Z,2.2
2018-08-13T11:14:49.978Z,2.2
2018-08-13T11:16:50.293Z,2.2
2018-08-13T11:18:50.340Z,2.2
2018-08-13T11:20:50.374Z,2.2
2018-08-13T11:22:50.461Z,2.4
2018-08-13T11:24:49.674Z,2.5
2018-08-13T11:26:50.015Z,2.5
2018-08-13T11:28:49.976Z,2.6
2018-08-13T11:30:50.017Z,3.0
2018-08-13T11:32:50.160Z,3.0
2018-08-13T11:34:49.932Z,2.5
2018-08-13T11:36:49.549Z,2.5
2018-08-13T11:38:50.488Z,2.3
2018-08-13T11:40:49.637Z,2.3
2018-08-13T11:42:49.710Z,2.5
2018-08-13T11:44:49.777Z,2.5
2018-08-13T11:46:49.979Z,2.6
2018-08-13T11:48:50.017Z,2.3
2018-08-13T11:50:50.206Z,2.8
2018-08-13T11:52:50.284Z,2.8
2018-08-13T11:54:50.268Z,2.9
2018-08-13T11:56:49.553Z,3.0
2018-08-13T11:58:49.663Z,2.8
2018-08-13T12:00:49.644Z,2.3
2018-08-13T12:02:49.576Z,2.0
2018-08-13T12:04:50.094Z,2.0
2018-08-13T12:06:50.457Z,2.2
2018-08-13T12:08:49.773Z,2.4
2018-08-13T12:10:49.830Z,2.6
2018-08-13T12:12:49.894Z,2.4
2018-08-13T12:14:49.949Z,2.4
2018-08-13T12:16:50.271Z,2.5
2018-08-13T12:18:50.321Z,2.4
2018-08-13T12:20:50.313Z,2.4
2018-08-13T12:22:50.301Z,2.5
2018-08-13T12:24:50.486Z,2.5
2018-08-13T12:26:49.792Z,2.4
2018-08-13T12:28:49.793Z,2.4
2018-08-13T12:30:49.977Z,2.7
2018-08-13T12:32:50.139Z,2.8
2018-08-13T12:34:49.718Z,2.8
2018-08-13T12:36:50.050Z,2.6
2018-08-13T12:38:50.129Z,2.3
2018-08-13T12:40:50.167Z,2.5
2018-08-13T12:42:50.175Z,2.5
2018-08-13T12:44:50.273Z,2.4
2018-08-13T12:46:49.524Z,2.2
2018-08-13T12:48:50.520Z,2.4
2018-08-13T12:50:49.545Z,2.4
2018-08-13T12:52:49.748Z,2.3
2018-08-13T12:54:49.852Z,2.4
2018-08-13T12:56:49.973Z,2.0
2018-08-13T12:58:50.047Z,2.0
2018-08-13T13:00:50.179Z,2.2
2018-08-13T13:02:50.421Z,2.9
2018-08-13T13:04:49.800Z,2.2
2018-08-13T13:06:50.112Z,2.1
2018-08-13T13:08:50.304Z,2.1
2018-08-13T13:10:49.654Z,2.5
2018-08-13T13:12:49.816Z,2.8
2018-08-13T13:14:50.009Z,2.4
2018-08-13T13:16:49.696Z,2.6
2018-08-13T13:18:49.966Z,2.6
2018-08-13T13:20:50.142Z,2.6
2018-08-13T13:22:50.473Z,2.0
2018-08-13T13:24:49.698Z,2.3
2018-08-13T13:26:50.102Z,2.3
2018-08-13T13:28:50.231Z,2.4
2018-08-13T13:30:50.297Z,2.4
2018-08-13T13:32:50.353Z,2.5
2018-08-13T13:34:49.839Z,2.4
2018-08-13T13:36:50.307Z,2.4
2018-08-13T13:38:50.469Z,2.4
2018-08-13T13:40:49.629Z,2.4
2018-08-13T13:42:49.735Z,2.5
2018-08-13T13:44:49.746Z,2.5
2018-08-13T13:46:50.162Z,2.5
2018-08-13T13:48:50.296Z,2.5
2018-08-13T13:50:49.638Z,2.3
2018-08-13T13:52:49.763Z,2.2
2018-08-13T13:54:49.843Z,2.4
2018-08-13T13:56:50.156Z,2.2
2018-08-13T13:58:50.244Z,2.2
2018-08-13T14:00:50.224Z,2.3
2018-08-13T14:02:50.290Z,2.0
2018-08-13T14:04:49.886Z,2.0
2018-08-13T14:06:50.220Z,2.4
2018-08-13T14:08:50.288Z,2.2
2018-08-13T14:10:50.277Z,2.1
2018-08-13T14:12:50.282Z,2.1
2018-08-13T14:14:50.366Z,2.2
2018-08-13T14:16:49.855Z,2.2
2018-08-13T14:18:49.910Z,2.2
2018-08-13T14:20:50.002Z,2.3
2018-08-13T14:22:50.055Z,2.9
2018-08-13T14:24:50.297Z,2.2
2018-08-13T14:26:49.555Z,2.3
2018-08-13T14:28:49.651Z,2.3
2018-08-13T14:30:49.661Z,2.6
2018-08-13T14:32:49.675Z,2.0
2018-08-13T14:34:50.517Z,2.0
2018-08-13T14:36:50.270Z,2.0
2018-08-13T14:38:50.280Z,2.0
2018-08-13T14:40:50.283Z,2.1
2018-08-13T14:42:50.377Z,2.1
2018-08-13T14:44:49.567Z,2.0
2018-08-13T14:46:49.910Z,2.0
2018-08-13T14:48:49.955Z,2.1
2018-08-13T14:50:50.079Z,1.9
2018-08-13T14:52:50.319Z,2.0
2018-08-13T14:54:50.525Z,2.0
2018-08-13T14:56:49.719Z,2.0
2018-08-13T14:58:49.770Z,2.4
2018-08-13T15:00:49.823Z,2.1
2018-08-13T15:02:49.968Z,2.2
2018-08-13T15:04:50.487Z,2.2
2018-08-13T15:06:49.940Z,2.1
2018-08-13T15:08:49.947Z,2.1
2018-08-13T15:10:50.006Z,2.5
2018-08-13T15:12:50.211Z,2.1
2018-08-13T15:14:50.441Z,2.1
2018-08-13T15:16:49.700Z,2.9
2018-08-13T15:18:49.690Z,2.0
2018-08-13T15:20:49.842Z,2.1
2018-08-13T15:22:49.993Z,2.1
2018-08-13T15:24:50.130Z,2.0
2018-08-13T15:26:50.523Z,2.0
2018-08-13T15:28:49.609Z,2.3
2018-08-13T15:30:49.835Z,1.9
2018-08-13T15:32:50.037Z,2.0
2018-08-13T15:34:49.665Z,2.2
2018-08-13T15:36:49.919Z,2.2
2018-08-13T15:38:50.043Z,2.2
2018-08-13T15:40:50.209Z,2.2
2018-08-13T15:42:50.318Z,2.4
2018-08-13T15:44:50.355Z,1.9
2018-08-13T15:46:49.609Z,1.9
2018-08-13T15:48:49.727Z,2.6
2018-08-13T15:50:49.996Z,1.9
2018-08-13T15:52:50.114Z,1.9
2018-08-13T15:54:50.196Z,1.9
2018-08-13T15:56:50.420Z,2.1
2018-08-13T15:58:50.493Z,2.2
2018-08-13T16:00:49.617Z,2.0
2018-08-13T16:02:49.666Z,1.8
2018-08-13T16:04:50.285Z,1.8
2018-08-13T16:06:49.581Z,1.9
2018-08-13T16:08:49.817Z,2.1
2018-08-13T16:10:49.878Z,2.2
2018-08-13T16:12:49.930Z,2.6
2018-08-13T16:14:49.966Z,2.6
2018-08-13T16:16:50.355Z,2.1
2018-08-13T16:18:50.422Z,2.0
2018-08-13T16:20:50.471Z,1.8
2018-08-13T16:22:49.522Z,1.8
2018-08-13T16:24:49.696Z,1.9
2018-08-13T16:26:49.947Z,2.0
2018-08-13T16:28:49.977Z,2.0
2018-08-13T16:30:50.035Z,2.1
2018-08-13T16:32:50.180Z,2.0
2018-08-13T16:34:49.745Z,2.0
2018-08-13T16:36:50.120Z,2.1
2018-08-13T16:38:50.180Z,2.1
2018-08-13T16:40:50.262Z,2.3
2018-08-13T16:42:49.670Z,2.3
2018-08-13T16:44:49.838Z,2.0
2018-08-13T16:46:49.962Z,2.0
2018-08-13T16:48:49.965Z,2.0
2018-08-13T16:50:50.007Z,2.1
2018-08-13T16:52:50.168Z,2.1
2018-08-13T16:54:50.273Z,2.1
2018-08-13T16:56:50.494Z,2.1
2018-08-13T16:58:49.569Z,2.2
2018-08-13T17:00:49.753Z,2.4
2018-08-13T17:02:49.916Z,2.4
2018-08-13T17:04:50.357Z,2.1
2018-08-13T17:06:49.593Z,2.1
2018-08-13T17:08:49.676Z,2.1
2018-08-13T17:10:49.896Z,2.1
2018-08-13T17:12:50.104Z,2.1
2018-08-13T17:14:50.336Z,2.0
2018-08-13T17:16:50.061Z,2.1
2018-08-13T17:18:50.274Z,2.6
2018-08-13T17:20:50.387Z,2.3
2018-08-13T17:22:49.577Z,2.3
2018-08-13T17:24:49.700Z,2.0
2018-08-13T17:26:50.246Z,5.4
2018-08-13T17:28:50.447Z,2.1
2018-08-13T17:30:49.614Z,2.1
2018-08-13T17:32:49.819Z,2.1
2018-08-13T17:34:50.401Z,2.4
2018-08-13T17:36:49.727Z,2.2
2018-08-13T17:38:49.797Z,2.2
2018-08-13T17:40:49.969Z,2.4
2018-08-13T17:42:50.389Z,2.4
2018-08-13T17:44:50.131Z,2.6
2018-08-13T17:46:50.519Z,2.6
2018-08-13T17:48:49.709Z,2.5
2018-08-13T17:50:49.892Z,2.4
2018-08-13T17:52:50.011Z,2.3
2018-08-13T17:54:50.010Z,10.0
2018-08-13T17:56:50.415Z,10.0
2018-08-13T17:58:50.480Z,2.4
2018-08-13T18:00:49.805Z,2.4
2018-08-13T18:02:49.870Z,2.5
2018-08-13T18:04:50.148Z,2.5
2018-08-13T18:06:49.552Z,2.4
2018-08-13T18:08:49.714Z,2.5
2018-08-13T18:10:49.756Z,2.5
2018-08-13T18:12:49.808Z,2.8
2018-08-13T18:14:49.858Z,2.5
2018-08-13T18:16:50.293Z,2.5
2018-08-13T18:18:50.489Z,2.6
2018-08-13T18:20:50.449Z,4.7
2018-08-13T18:22:49.564Z,3.9
2018-08-13T18:24:49.683Z,3.9
2018-08-13T18:26:50.131Z,2.5
2018-08-13T18:28:50.239Z,2.5
2018-08-13T18:30:50.258Z,2.6
2018-08-13T18:32:50.286Z,2.4
2018-08-13T18:34:49.925Z,2.4
2018-08-13T18:36:50.301Z,5.7
2018-08-13T18:38:50.487Z,5.7
2018-08-13T18:40:50.497Z,3.9
2018-08-13T18:42:49.608Z,2.9
2018-08-13T18:44:49.730Z,2.7
2018-08-13T18:46:50.314Z,2.7
2018-08-13T18:48:49.734Z,2.8
2018-08-13T18:50:49.713Z,2.7
2018-08-13T18:52:49.687Z,2.6
2018-08-13T18:54:49.859Z,2.7
2018-08-13T18:56:50.313Z,2.5
2018-08-13T18:58:50.320Z,2.5
2018-08-13T19:00:50.319Z,5.4
2018-08-13T19:02:50.364Z,2.9
2018-08-13T19:04:50.213Z,3.0
2018-08-13T19:06:50.055Z,3.0
2018-08-13T19:08:50.195Z,2.5
2018-08-13T19:10:50.228Z,4.7
2018-08-13T19:12:50.380Z,2.8
2018-08-13T19:14:50.466Z,2.8
2018-08-13T19:16:49.839Z,5.2
2018-08-13T19:18:49.807Z,3.2
2018-08-13T19:20:49.805Z,3.8
2018-08-13T19:22:49.883Z,4.1
2018-08-13T19:24:50.033Z,4.1
2018-08-13T19:26:50.405Z,4.9
2018-08-13T19:28:50.435Z,5.6
2018-08-13T19:30:50.551Z,5.2
2018-08-13T19:32:49.690Z,4.8
2018-08-13T19:34:50.177Z,5.2
2018-08-13T19:36:50.437Z,5.2
2018-08-13T19:38:50.380Z,4.7
2018-08-13T19:40:50.534Z,4.5
2018-08-13T19:42:49.562Z,4.5
2018-08-13T19:44:49.690Z,4.8
2018-08-13T19:46:49.993Z,4.8
2018-08-13T19:48:50.093Z,4.8
2018-08-13T19:50:50.210Z,4.5
2018-08-13T19:52:50.349Z,4.9
2018-08-13T19:54:50.329Z,4.9
2018-08-13T19:56:49.577Z,5.3
2018-08-13T19:58:49.724Z,5.3
2018-08-13T20:00:49.842Z,4.8
2018-08-13T20:02:49.901Z,4.7
2018-08-13T20:04:50.249Z,4.7
2018-08-13T20:06:49.752Z,5.8
2018-08-13T20:08:49.958Z,6.5
2018-08-13T20:10:50.024Z,6.9
2018-08-13T20:12:50.082Z,6.9
2018-08-13T20:14:50.131Z,7.5
2018-08-13T20:16:49.539Z,7.1
2018-08-13T20:18:49.691Z,6.8
2018-08-13T20:20:49.634Z,5.2
2018-08-13T20:22:49.614Z,5.2
2018-08-13T20:24:49.906Z,5.1
2018-08-13T20:26:50.372Z,5.1
2018-08-13T20:28:50.366Z,4.8
2018-08-13T20:30:50.473Z,4.8
2018-08-13T20:32:49.611Z,5.4
2018-08-13T20:34:50.223Z,4.7
2018-08-13T20:36:49.693Z,4.7
2018-08-13T20:38:49.942Z,4.9
2018-08-13T20:40:50.410Z,4.9
2018-08-13T20:42:49.533Z,4.6
2018-08-13T20:44:49.696Z,4.6
2018-08-13T20:46:49.959Z,4.8
2018-08-13T20:48:50.050Z,4.7
2018-08-13T20:50:50.225Z,4.7
2018-08-13T20:52:50.369Z,4.4
2018-08-13T20:54:50.404Z,5.1
2018-08-13T20:56:49.630Z,5.6
2018-08-13T20:58:49.724Z,4.8
2018-08-13T21:00:49.989Z,5.1
2018-08-13T21:02:50.036Z,5.1
2018-08-13T21:04:50.482Z,5.2
2018-08-13T21:06:49.923Z,4.9
2018-08-13T21:08:50.096Z,5.1
2018-08-13T21:10:50.168Z,5.1
2018-08-13T21:12:50.187Z,5.2
2018-08-13T21:14:50.260Z,5.4
2018-08-13T21:16:49.537Z,5.6
2018-08-13T21:18:49.658Z,5.6
2018-08-13T21:20:49.630Z,5.2
2018-08-13T21:22:49.709Z,5.3
2018-08-13T21:24:49.966Z,5.6
2018-08-13T21:26:50.262Z,6.4
2018-08-13T21:28:50.307Z,6.4
2018-08-13T21:30:50.366Z,5.7
2018-08-13T21:32:50.437Z,5.7
2018-08-13T21:34:50.012Z,6.6
2018-08-13T21:36:49.548Z,6.8
2018-08-13T21:38:49.652Z,6.8
2018-08-13T21:40:49.682Z,7.1
2018-08-13T21:42:49.920Z,7.9
2018-08-13T21:44:49.531Z,8.1
2018-08-13T21:46:49.848Z,8.6
2018-08-13T21:48:49.823Z,8.6
2018-08-13T21:50:49.899Z,8.9
2018-08-13T21:52:50.132Z,9.4
2018-08-13T21:54:50.238Z,10.0
2018-08-13T21:56:50.511Z,10.0
2018-08-13T21:58:49.577Z,10.0
2018-08-13T22:00:49.729Z,10.0
2018-08-13T22:02:49.873Z,9.6
2018-08-13T22:04:50.340Z,10.2
2018-08-13T22:06:49.626Z,10.7
2018-08-13T22:08:49.696Z,9.0
2018-08-13T22:10:49.789Z,9.0
2018-08-13T22:12:49.978Z,9.8
2018-08-13T22:14:50.070Z,8.7
2018-08-13T22:16:50.424Z,8.9
2018-08-13T22:18:49.565Z,8.9
2018-08-13T22:20:49.788Z,8.6
2018-08-13T22:22:49.887Z,9.8
2018-08-13T22:24:49.996Z,9.1
2018-08-13T22:26:50.280Z,9.1
2018-08-13T22:28:50.430Z,8.7
2018-08-13T22:30:49.601Z,8.5
2018-08-13T22:32:49.679Z,9.7
2018-08-13T22:34:50.135Z,9.2
2018-08-13T22:36:50.571Z,9.2
2018-08-13T22:38:49.816Z,10.0
2018-08-13T22:40:49.950Z,10.1
2018-08-13T22:42:50.149Z,8.9
2018-08-13T22:44:50.203Z,8.9
2018-08-13T22:46:50.557Z,8.1
2018-08-13T22:48:49.807Z,8.1
2018-08-13T22:50:49.852Z,8.3
2018-08-13T22:52:49.952Z,9.4
2018-08-13T22:54:50.126Z,9.4
2018-08-13T22:56:50.472Z,9.4
2018-08-13T22:58:49.708Z,8.8
2018-08-13T23:00:49.926Z,9.3
2018-08-13T23:02:50.417Z,9.3
2018-08-13T23:04:49.959Z,9.3
2018-08-13T23:06:50.323Z,8.7
2018-08-13T23:08:50.488Z,9.7
2018-08-13T23:10:50.439Z,10.4
2018-08-13T23:12:50.543Z,10.4
2018-08-13T23:14:49.842Z,9.8
2018-08-13T23:16:49.626Z,9.1
2018-08-13T23:18:49.869Z,9.4
2018-08-13T23:20:49.895Z,9.3
2018-08-13T23:22:49.962Z,9.3
2018-08-13T23:24:50.170Z,9.6
2018-08-13T23:26:49.600Z,10.2
2018-08-13T23:28:49.575Z,9.9
2018-08-13T23:30:49.682Z,9.5
2018-08-13T23:32:49.793Z,9.5
2018-08-13T23:34:50.188Z,9.9
2018-08-13T23:36:49.579Z,9.9
2018-08-13T23:38:49.578Z,8.9
2018-08-13T23:40:49.623Z,9.6
2018-08-13T23:42:49.857Z,9.6
2018-08-13T23:44:49.923Z,8.9
2018-08-13T23:46:50.329Z,8.6
2018-08-13T23:48:50.475Z,9.2
2018-08-13T23:50:49.608Z,9.0
2018-08-13T23:52:49.819Z,8.7
2018-08-13T23:54:49.932Z,7.9
2018-08-13T23:56:50.212Z,7.9
2018-08-13T23:58:50.316Z,8.4
